sensor_id;sensor_type;location;lat;lon;timestamp;temperature;humidity
20929;DHT22;21895;47.072;15.132;2023-09-08T00:02:16;13.50;99.90
20929;DHT22;21895;47.072;15.132;2023-09-08T00:04:43;13.40;99.90
20929;DHT22;21895;47.072;15.132;2023-09-08T00:07:10;13.40;99.90
20929;DHT22;21895;47.072;15.132;2023-09-08T00:09:36;13.40;99.90
20929;DHT22;21895;47.072;15.132;2023-09-08T00:12:03;13.40;99.90
20929;DHT22;21895;47.072;15.132;2023-09-08T00:14:30;13.30;99.90
20929;DHT22;21895;47.072;15.132;2023-09-08T00:16:57;13.30;99.90
20929;DHT22;21895;47.072;15.132;2023-09-08T00:19:23;13.20;99.90
20929;DHT22;21895;47.072;15.132;2023-09-08T00:21:50;13.20;99.90
20929;DHT22;21895;47.072;15.132;2023-09-08T00:24:18;13.10;99.90
20929;DHT22;21895;47.072;15.132;2023-09-08T00:26:44;13.00;99.90
20929;DHT22;21895;47.072;15.132;2023-09-08T00:29:11;13.00;99.90
20929;DHT22;21895;47.072;15.132;2023-09-08T00:31:38;13.10;99.90
20929;DHT22;21895;47.072;15.132;2023-09-08T00:34:05;13.10;99.90
20929;DHT22;21895;47.072;15.132;2023-09-08T00:36:33;13.00;99.90
20929;DHT22;21895;47.072;15.132;2023-09-08T00:38:59;13.10;99.90
20929;DHT22;21895;47.072;15.132;2023-09-08T00:41:26;13.00;99.90
20929;DHT22;21895;47.072;15.132;2023-09-08T00:43:52;13.00;99.90
20929;DHT22;21895;47.072;15.132;2023-09-08T00:46:19;13.00;99.90
20929;DHT22;21895;47.072;15.132;2023-09-08T00:48:46;12.80;99.90
20929;DHT22;21895;47.072;15.132;2023-09-08T00:51:12;12.70;99.90
20929;DHT22;21895;47.072;15.132;2023-09-08T00:53:39;12.70;99.90
20929;DHT22;21895;47.072;15.132;2023-09-08T00:56:07;12.70;99.90
20929;DHT22;21895;47.072;15.132;2023-09-08T00:58:36;12.70;99.90
20929;DHT22;21895;47.072;15.132;2023-09-08T01:01:03;12.70;99.90
20929;DHT22;21895;47.072;15.132;2023-09-08T01:03:31;12.70;99.90
20929;DHT22;21895;47.072;15.132;2023-09-08T01:05:58;12.70;99.90
20929;DHT22;21895;47.072;15.132;2023-09-08T01:08:26;12.70;99.90
20929;DHT22;21895;47.072;15.132;2023-09-08T01:10:53;12.80;99.90
20929;DHT22;21895;47.072;15.132;2023-09-08T01:13:20;12.70;99.90
20929;DHT22;21895;47.072;15.132;2023-09-08T01:15:49;12.60;99.90
20929;DHT22;21895;47.072;15.132;2023-09-08T01:18:15;12.60;99.90
20929;DHT22;21895;47.072;15.132;2023-09-08T01:24:05;12.60;99.90
20929;DHT22;21895;47.072;15.132;2023-09-08T01:26:56;12.60;99.90
20929;DHT22;21895;47.072;15.132;2023-09-08T01:29:23;12.50;99.90
20929;DHT22;21895;47.072;15.132;2023-09-08T01:31:51;12.40;99.90
20929;DHT22;21895;47.072;15.132;2023-09-08T01:34:18;12.30;99.90
20929;DHT22;21895;47.072;15.132;2023-09-08T01:36:45;12.30;99.90
20929;DHT22;21895;47.072;15.132;2023-09-08T01:39:12;12.20;99.90
20929;DHT22;21895;47.072;15.132;2023-09-08T01:41:39;12.20;99.90
20929;DHT22;21895;47.072;15.132;2023-09-08T01:44:06;12.30;99.90
20929;DHT22;21895;47.072;15.132;2023-09-08T01:46:36;12.30;99.90
20929;DHT22;21895;47.072;15.132;2023-09-08T01:49:02;12.40;99.90
20929;DHT22;21895;47.072;15.132;2023-09-08T01:51:29;12.40;99.90
20929;DHT22;21895;47.072;15.132;2023-09-08T01:53:56;12.40;99.90
20929;DHT22;21895;47.072;15.132;2023-09-08T01:56:22;12.50;99.90
20929;DHT22;21895;47.072;15.132;2023-09-08T01:58:49;12.40;99.90
20929;DHT22;21895;47.072;15.132;2023-09-08T02:01:15;12.40;99.90
20929;DHT22;21895;47.072;15.132;2023-09-08T02:03:42;12.30;99.90
20929;DHT22;21895;47.072;15.132;2023-09-08T02:06:09;12.40;99.90
20929;DHT22;21895;47.072;15.132;2023-09-08T02:08:35;12.40;99.90
20929;DHT22;21895;47.072;15.132;2023-09-08T02:11:02;12.50;99.90
20929;DHT22;21895;47.072;15.132;2023-09-08T02:13:29;12.50;99.90
20929;DHT22;21895;47.072;15.132;2023-09-08T02:15:56;12.40;99.90
20929;DHT22;21895;47.072;15.132;2023-09-08T02:18:22;12.20;99.90
20929;DHT22;21895;47.072;15.132;2023-09-08T02:20:50;12.10;99.90
20929;DHT22;21895;47.072;15.132;2023-09-08T02:23:17;12.00;99.90
20929;DHT22;21895;47.072;15.132;2023-09-08T02:25:43;12.10;99.90
20929;DHT22;21895;47.072;15.132;2023-09-08T02:28:10;12.10;99.90
20929;DHT22;21895;47.072;15.132;2023-09-08T02:30:36;12.20;99.90
20929;DHT22;21895;47.072;15.132;2023-09-08T02:33:03;12.20;99.90
20929;DHT22;21895;47.072;15.132;2023-09-08T02:35:35;12.20;99.90
20929;DHT22;21895;47.072;15.132;2023-09-08T02:38:02;12.20;99.90
20929;DHT22;21895;47.072;15.132;2023-09-08T02:40:29;12.20;99.90
20929;DHT22;21895;47.072;15.132;2023-09-08T02:42:56;12.30;99.90
20929;DHT22;21895;47.072;15.132;2023-09-08T02:45:22;12.30;99.90
20929;DHT22;21895;47.072;15.132;2023-09-08T02:47:49;12.20;99.90
20929;DHT22;21895;47.072;15.132;2023-09-08T02:50:16;12.10;99.90
20929;DHT22;21895;47.072;15.132;2023-09-08T02:52:43;11.90;99.90
20929;DHT22;21895;47.072;15.132;2023-09-08T02:55:10;11.90;99.90
20929;DHT22;21895;47.072;15.132;2023-09-08T02:57:38;11.90;99.90
20929;DHT22;21895;47.072;15.132;2023-09-08T03:00:08;12.00;99.90
20929;DHT22;21895;47.072;15.132;2023-09-08T03:02:35;12.00;99.90
20929;DHT22;21895;47.072;15.132;2023-09-08T03:05:02;11.90;99.90
20929;DHT22;21895;47.072;15.132;2023-09-08T03:07:30;12.00;99.90
20929;DHT22;21895;47.072;15.132;2023-09-08T03:09:59;12.00;99.90
20929;DHT22;21895;47.072;15.132;2023-09-08T03:12:25;12.10;99.90
20929;DHT22;21895;47.072;15.132;2023-09-08T03:14:52;12.00;99.90
20929;DHT22;21895;47.072;15.132;2023-09-08T03:17:18;12.00;99.90
20929;DHT22;21895;47.072;15.132;2023-09-08T03:19:45;11.90;99.90
20929;DHT22;21895;47.072;15.132;2023-09-08T03:22:12;11.80;99.90
20929;DHT22;21895;47.072;15.132;2023-09-08T03:24:39;11.90;99.90
20929;DHT22;21895;47.072;15.132;2023-09-08T03:27:05;12.00;99.90
20929;DHT22;21895;47.072;15.132;2023-09-08T03:29:32;12.00;99.90
20929;DHT22;21895;47.072;15.132;2023-09-08T03:31:59;12.00;99.90
20929;DHT22;21895;47.072;15.132;2023-09-08T03:34:25;12.10;99.90
20929;DHT22;21895;47.072;15.132;2023-09-08T03:36:54;12.00;99.90
20929;DHT22;21895;47.072;15.132;2023-09-08T03:39:20;11.90;99.90
20929;DHT22;21895;47.072;15.132;2023-09-08T03:41:47;11.90;99.90
20929;DHT22;21895;47.072;15.132;2023-09-08T03:44:13;11.80;99.90
20929;DHT22;21895;47.072;15.132;2023-09-08T03:46:40;11.80;99.90
20929;DHT22;21895;47.072;15.132;2023-09-08T03:49:07;11.90;99.90
20929;DHT22;21895;47.072;15.132;2023-09-08T03:51:34;11.90;99.90
20929;DHT22;21895;47.072;15.132;2023-09-08T03:54:00;11.90;99.90
20929;DHT22;21895;47.072;15.132;2023-09-08T03:56:29;11.90;99.90
20929;DHT22;21895;47.072;15.132;2023-09-08T03:58:55;11.90;99.90
20929;DHT22;21895;47.072;15.132;2023-09-08T04:01:22;11.90;99.90
20929;DHT22;21895;47.072;15.132;2023-09-08T04:03:48;12.00;99.90
20929;DHT22;21895;47.072;15.132;2023-09-08T04:06:15;12.00;99.90
20929;DHT22;21895;47.072;15.132;2023-09-08T04:08:42;12.00;99.90
20929;DHT22;21895;47.072;15.132;2023-09-08T04:11:08;12.00;99.90
20929;DHT22;21895;47.072;15.132;2023-09-08T04:13:35;11.90;99.90
20929;DHT22;21895;47.072;15.132;2023-09-08T04:16:02;11.90;99.90
20929;DHT22;21895;47.072;15.132;2023-09-08T04:18:28;11.90;99.90
20929;DHT22;21895;47.072;15.132;2023-09-08T04:20:55;11.80;99.90
20929;DHT22;21895;47.072;15.132;2023-09-08T04:23:21;11.80;99.90
20929;DHT22;21895;47.072;15.132;2023-09-08T04:25:48;11.80;99.90
20929;DHT22;21895;47.072;15.132;2023-09-08T04:28:14;11.80;99.90
20929;DHT22;21895;47.072;15.132;2023-09-08T04:30:41;11.90;99.90
20929;DHT22;21895;47.072;15.132;2023-09-08T04:33:08;12.00;99.90
20929;DHT22;21895;47.072;15.132;2023-09-08T04:35:34;12.00;99.90
20929;DHT22;21895;47.072;15.132;2023-09-08T04:38:01;12.10;99.90
20929;DHT22;21895;47.072;15.132;2023-09-08T04:40:30;12.00;99.90
20929;DHT22;21895;47.072;15.132;2023-09-08T04:42:57;12.00;99.90
20929;DHT22;21895;47.072;15.132;2023-09-08T04:45:23;12.00;99.90
20929;DHT22;21895;47.072;15.132;2023-09-08T04:47:50;12.00;99.90
20929;DHT22;21895;47.072;15.132;2023-09-08T04:50:16;12.00;99.90
20929;DHT22;21895;47.072;15.132;2023-09-08T04:52:43;12.00;99.90
20929;DHT22;21895;47.072;15.132;2023-09-08T04:55:10;12.00;99.90
20929;DHT22;21895;47.072;15.132;2023-09-08T04:57:36;12.00;99.90
20929;DHT22;21895;47.072;15.132;2023-09-08T05:00:04;12.10;99.90
20929;DHT22;21895;47.072;15.132;2023-09-08T05:02:31;12.20;99.90
20929;DHT22;21895;47.072;15.132;2023-09-08T05:04:57;12.20;99.90
20929;DHT22;21895;47.072;15.132;2023-09-08T05:07:26;12.30;99.90
20929;DHT22;21895;47.072;15.132;2023-09-08T05:09:52;12.30;99.90
20929;DHT22;21895;47.072;15.132;2023-09-08T05:12:23;12.30;99.90
20929;DHT22;21895;47.072;15.132;2023-09-08T05:14:49;12.40;99.90
20929;DHT22;21895;47.072;15.132;2023-09-08T05:17:22;12.40;99.90
20929;DHT22;21895;47.072;15.132;2023-09-08T05:19:49;12.50;99.90
20929;DHT22;21895;47.072;15.132;2023-09-08T05:22:17;12.70;99.90
20929;DHT22;21895;47.072;15.132;2023-09-08T05:24:44;12.70;99.90
20929;DHT22;21895;47.072;15.132;2023-09-08T05:27:10;12.80;99.90
20929;DHT22;21895;47.072;15.132;2023-09-08T05:29:37;13.00;99.90
20929;DHT22;21895;47.072;15.132;2023-09-08T05:32:04;13.10;99.90
20929;DHT22;21895;47.072;15.132;2023-09-08T05:34:30;13.20;99.90
20929;DHT22;21895;47.072;15.132;2023-09-08T05:36:57;13.30;99.90
20929;DHT22;21895;47.072;15.132;2023-09-08T05:39:23;13.30;99.90
20929;DHT22;21895;47.072;15.132;2023-09-08T05:41:50;13.40;99.90
20929;DHT22;21895;47.072;15.132;2023-09-08T05:44:16;13.50;99.90
20929;DHT22;21895;47.072;15.132;2023-09-08T05:46:43;13.70;99.90
20929;DHT22;21895;47.072;15.132;2023-09-08T05:49:10;13.90;99.90
20929;DHT22;21895;47.072;15.132;2023-09-08T05:51:37;14.10;99.90
20929;DHT22;21895;47.072;15.132;2023-09-08T05:54:03;14.40;99.90
20929;DHT22;21895;47.072;15.132;2023-09-08T05:56:30;14.70;99.90
20929;DHT22;21895;47.072;15.132;2023-09-08T05:58:58;14.90;99.90
20929;DHT22;21895;47.072;15.132;2023-09-08T06:01:24;15.10;99.90
20929;DHT22;21895;47.072;15.132;2023-09-08T06:03:51;15.30;99.90
20929;DHT22;21895;47.072;15.132;2023-09-08T06:06:18;15.40;99.90
20929;DHT22;21895;47.072;15.132;2023-09-08T06:08:44;15.70;99.90
20929;DHT22;21895;47.072;15.132;2023-09-08T06:11:11;15.80;99.90
20929;DHT22;21895;47.072;15.132;2023-09-08T06:13:39;16.10;99.90
20929;DHT22;21895;47.072;15.132;2023-09-08T06:16:05;16.20;99.90
20929;DHT22;21895;47.072;15.132;2023-09-08T06:18:32;16.30;99.90
20929;DHT22;21895;47.072;15.132;2023-09-08T06:21:00;16.50;99.90
20929;DHT22;21895;47.072;15.132;2023-09-08T06:23:27;16.70;99.90
20929;DHT22;21895;47.072;15.132;2023-09-08T06:25:56;16.90;99.90
20929;DHT22;21895;47.072;15.132;2023-09-08T06:28:29;17.10;99.90
20929;DHT22;21895;47.072;15.132;2023-09-08T06:30:55;17.30;99.90
20929;DHT22;21895;47.072;15.132;2023-09-08T06:33:22;17.40;99.90
20929;DHT22;21895;47.072;15.132;2023-09-08T06:35:49;17.60;99.90
20929;DHT22;21895;47.072;15.132;2023-09-08T06:38:16;17.90;99.90
20929;DHT22;21895;47.072;15.132;2023-09-08T06:40:42;18.00;99.90
20929;DHT22;21895;47.072;15.132;2023-09-08T06:43:09;18.20;99.90
20929;DHT22;21895;47.072;15.132;2023-09-08T06:45:38;18.20;99.90
20929;DHT22;21895;47.072;15.132;2023-09-08T06:48:06;18.30;99.90
20929;DHT22;21895;47.072;15.132;2023-09-08T06:50:32;18.50;99.90
20929;DHT22;21895;47.072;15.132;2023-09-08T06:52:59;18.70;99.90
20929;DHT22;21895;47.072;15.132;2023-09-08T06:55:26;18.80;99.90
20929;DHT22;21895;47.072;15.132;2023-09-08T06:57:53;18.90;99.90
20929;DHT22;21895;47.072;15.132;2023-09-08T07:00:19;19.10;99.90
20929;DHT22;21895;47.072;15.132;2023-09-08T07:02:46;19.30;99.90
20929;DHT22;21895;47.072;15.132;2023-09-08T07:05:15;19.40;99.90
20929;DHT22;21895;47.072;15.132;2023-09-08T07:07:42;19.70;99.90
20929;DHT22;21895;47.072;15.132;2023-09-08T07:10:10;19.80;99.90
20929;DHT22;21895;47.072;15.132;2023-09-08T07:12:37;19.80;99.90
20929;DHT22;21895;47.072;15.132;2023-09-08T07:15:04;20.00;99.90
20929;DHT22;21895;47.072;15.132;2023-09-08T07:17:31;20.00;99.90
20929;DHT22;21895;47.072;15.132;2023-09-08T07:19:58;20.10;99.90
20929;DHT22;21895;47.072;15.132;2023-09-08T07:22:24;20.30;99.90
20929;DHT22;21895;47.072;15.132;2023-09-08T07:24:51;20.40;99.90
20929;DHT22;21895;47.072;15.132;2023-09-08T07:27:17;20.60;99.90
20929;DHT22;21895;47.072;15.132;2023-09-08T07:29:45;20.80;99.90
20929;DHT22;21895;47.072;15.132;2023-09-08T07:32:13;21.00;99.90
20929;DHT22;21895;47.072;15.132;2023-09-08T07:34:40;21.10;99.90
20929;DHT22;21895;47.072;15.132;2023-09-08T07:37:07;21.10;99.90
20929;DHT22;21895;47.072;15.132;2023-09-08T07:39:33;21.30;99.90
20929;DHT22;21895;47.072;15.132;2023-09-08T07:42:01;21.40;99.90
20929;DHT22;21895;47.072;15.132;2023-09-08T07:44:28;21.30;99.90
20929;DHT22;21895;47.072;15.132;2023-09-08T07:46:55;21.40;99.90
20929;DHT22;21895;47.072;15.132;2023-09-08T07:49:22;21.80;99.90
20929;DHT22;21895;47.072;15.132;2023-09-08T07:51:49;21.80;99.90
20929;DHT22;21895;47.072;15.132;2023-09-08T07:54:16;22.00;99.90
20929;DHT22;21895;47.072;15.132;2023-09-08T07:56:46;22.00;99.90
20929;DHT22;21895;47.072;15.132;2023-09-08T07:59:13;22.10;99.90
20929;DHT22;21895;47.072;15.132;2023-09-08T08:01:39;22.20;99.90
20929;DHT22;21895;47.072;15.132;2023-09-08T08:04:06;22.40;99.90
20929;DHT22;21895;47.072;15.132;2023-09-08T08:06:33;22.40;99.90
20929;DHT22;21895;47.072;15.132;2023-09-08T08:09:00;22.40;99.90
20929;DHT22;21895;47.072;15.132;2023-09-08T08:11:29;22.50;99.90
20929;DHT22;21895;47.072;15.132;2023-09-08T08:13:55;22.60;99.90
20929;DHT22;21895;47.072;15.132;2023-09-08T08:16:25;22.60;99.90
20929;DHT22;21895;47.072;15.132;2023-09-08T08:18:52;22.90;99.90
20929;DHT22;21895;47.072;15.132;2023-09-08T08:21:18;23.20;99.90
20929;DHT22;21895;47.072;15.132;2023-09-08T08:23:45;23.20;99.90
20929;DHT22;21895;47.072;15.132;2023-09-08T08:26:12;23.10;99.90
20929;DHT22;21895;47.072;15.132;2023-09-08T08:28:38;23.10;99.90
20929;DHT22;21895;47.072;15.132;2023-09-08T08:31:05;23.30;99.90
20929;DHT22;21895;47.072;15.132;2023-09-08T08:33:32;23.40;99.90
20929;DHT22;21895;47.072;15.132;2023-09-08T08:35:59;23.60;99.70
20929;DHT22;21895;47.072;15.132;2023-09-08T08:38:26;23.60;99.90
20929;DHT22;21895;47.072;15.132;2023-09-08T08:40:53;23.70;99.90
20929;DHT22;21895;47.072;15.132;2023-09-08T08:43:20;23.70;99.90
20929;DHT22;21895;47.072;15.132;2023-09-08T08:45:49;23.90;99.90
20929;DHT22;21895;47.072;15.132;2023-09-08T08:48:18;24.00;99.90
20929;DHT22;21895;47.072;15.132;2023-09-08T08:50:47;23.90;99.70
20929;DHT22;21895;47.072;15.132;2023-09-08T08:53:14;24.00;98.90
20929;DHT22;21895;47.072;15.132;2023-09-08T08:55:44;24.10;98.20
20929;DHT22;21895;47.072;15.132;2023-09-08T08:58:12;24.20;98.40
20929;DHT22;21895;47.072;15.132;2023-09-08T09:00:41;24.20;98.70
20929;DHT22;21895;47.072;15.132;2023-09-08T09:03:09;24.40;99.70
20929;DHT22;21895;47.072;15.132;2023-09-08T09:05:42;24.50;97.70
20929;DHT22;21895;47.072;15.132;2023-09-08T09:08:16;24.50;97.20
20929;DHT22;21895;47.072;15.132;2023-09-08T09:10:43;24.70;96.00
20929;DHT22;21895;47.072;15.132;2023-09-08T09:13:10;24.60;96.00
20929;DHT22;21895;47.072;15.132;2023-09-08T09:15:36;24.70;97.00
20929;DHT22;21895;47.072;15.132;2023-09-08T09:18:07;24.70;97.20
20929;DHT22;21895;47.072;15.132;2023-09-08T09:20:34;24.80;97.30
20929;DHT22;21895;47.072;15.132;2023-09-08T09:23:01;24.90;97.40
20929;DHT22;21895;47.072;15.132;2023-09-08T09:25:30;25.10;96.80
20929;DHT22;21895;47.072;15.132;2023-09-08T09:27:59;25.00;96.40
20929;DHT22;21895;47.072;15.132;2023-09-08T09:30:28;24.90;96.00
20929;DHT22;21895;47.072;15.132;2023-09-08T09:33:11;25.10;96.00
20929;DHT22;21895;47.072;15.132;2023-09-08T09:35:49;24.90;97.30
20929;DHT22;21895;47.072;15.132;2023-09-08T09:38:18;25.00;96.80
20929;DHT22;21895;47.072;15.132;2023-09-08T09:40:47;25.10;96.70
20929;DHT22;21895;47.072;15.132;2023-09-08T09:43:15;25.20;96.10
20929;DHT22;21895;47.072;15.132;2023-09-08T09:45:43;25.40;95.40
20929;DHT22;21895;47.072;15.132;2023-09-08T09:48:10;25.30;95.20
20929;DHT22;21895;47.072;15.132;2023-09-08T09:50:40;25.40;95.50
20929;DHT22;21895;47.072;15.132;2023-09-08T09:53:09;25.40;94.80
20929;DHT22;21895;47.072;15.132;2023-09-08T09:55:38;25.50;94.10
20929;DHT22;21895;47.072;15.132;2023-09-08T09:58:07;25.60;93.90
20929;DHT22;21895;47.072;15.132;2023-09-08T10:00:37;25.60;94.10
20929;DHT22;21895;47.072;15.132;2023-09-08T10:03:07;25.50;94.20
20929;DHT22;21895;47.072;15.132;2023-09-08T10:05:34;25.50;93.50
20929;DHT22;21895;47.072;15.132;2023-09-08T10:08:01;25.40;93.50
20929;DHT22;21895;47.072;15.132;2023-09-08T10:10:28;25.40;94.90
20929;DHT22;21895;47.072;15.132;2023-09-08T10:13:02;25.50;92.90
20929;DHT22;21895;47.072;15.132;2023-09-08T10:15:32;25.40;92.90
20929;DHT22;21895;47.072;15.132;2023-09-08T10:18:04;25.40;92.60
20929;DHT22;21895;47.072;15.132;2023-09-08T10:20:33;25.70;93.30
20929;DHT22;21895;47.072;15.132;2023-09-08T10:23:15;25.70;93.80
20929;DHT22;21895;47.072;15.132;2023-09-08T10:25:56;25.70;92.50
20929;DHT22;21895;47.072;15.132;2023-09-08T10:28:34;25.70;91.90
20929;DHT22;21895;47.072;15.132;2023-09-08T10:31:04;25.50;92.10
20929;DHT22;21895;47.072;15.132;2023-09-08T10:33:31;25.50;92.50
20929;DHT22;21895;47.072;15.132;2023-09-08T10:36:02;25.80;93.50
20929;DHT22;21895;47.072;15.132;2023-09-08T10:38:34;25.70;91.70
20929;DHT22;21895;47.072;15.132;2023-09-08T10:43:23;25.60;91.50
20929;DHT22;21895;47.072;15.132;2023-09-08T10:45:50;25.40;92.40
20929;DHT22;21895;47.072;15.132;2023-09-08T10:48:19;25.60;92.60
20929;DHT22;21895;47.072;15.132;2023-09-08T10:50:46;25.70;90.90
20929;DHT22;21895;47.072;15.132;2023-09-08T10:53:19;25.70;91.50
20929;DHT22;21895;47.072;15.132;2023-09-08T10:55:49;25.80;91.00
20929;DHT22;21895;47.072;15.132;2023-09-08T10:58:36;25.80;91.10
20929;DHT22;21895;47.072;15.132;2023-09-08T11:01:05;25.80;91.70
20929;DHT22;21895;47.072;15.132;2023-09-08T11:03:52;25.80;91.20
20929;DHT22;21895;47.072;15.132;2023-09-08T11:06:20;25.90;90.70
20929;DHT22;21895;47.072;15.132;2023-09-08T11:08:48;25.80;91.00
20929;DHT22;21895;47.072;15.132;2023-09-08T11:11:19;25.90;92.20
20929;DHT22;21895;47.072;15.132;2023-09-08T11:13:46;25.90;91.10
20929;DHT22;21895;47.072;15.132;2023-09-08T11:16:16;25.80;91.70
20929;DHT22;21895;47.072;15.132;2023-09-08T11:18:47;25.90;91.30
20929;DHT22;21895;47.072;15.132;2023-09-08T11:21:16;25.90;91.40
20929;DHT22;21895;47.072;15.132;2023-09-08T11:23:43;25.80;91.90
20929;DHT22;21895;47.072;15.132;2023-09-08T11:26:12;25.80;91.30
20929;DHT22;21895;47.072;15.132;2023-09-08T11:28:41;25.70;92.70
20929;DHT22;21895;47.072;15.132;2023-09-08T11:31:08;25.90;91.80
20929;DHT22;21895;47.072;15.132;2023-09-08T11:33:37;25.90;91.50
20929;DHT22;21895;47.072;15.132;2023-09-08T11:36:14;26.10;91.50
20929;DHT22;21895;47.072;15.132;2023-09-08T11:38:42;25.90;90.90
20929;DHT22;21895;47.072;15.132;2023-09-08T11:41:10;25.90;91.20
20929;DHT22;21895;47.072;15.132;2023-09-08T11:43:37;25.90;91.60
20929;DHT22;21895;47.072;15.132;2023-09-08T11:46:04;26.00;91.30
20929;DHT22;21895;47.072;15.132;2023-09-08T11:48:32;25.90;91.70
20929;DHT22;21895;47.072;15.132;2023-09-08T11:51:00;25.90;92.10
20929;DHT22;21895;47.072;15.132;2023-09-08T11:53:27;26.00;91.40
20929;DHT22;21895;47.072;15.132;2023-09-08T11:55:54;26.10;92.10
20929;DHT22;21895;47.072;15.132;2023-09-08T11:58:22;26.00;91.60
20929;DHT22;21895;47.072;15.132;2023-09-08T12:00:50;25.70;91.70
20929;DHT22;21895;47.072;15.132;2023-09-08T12:03:17;25.70;92.30
20929;DHT22;21895;47.072;15.132;2023-09-08T12:05:44;25.70;92.40
20929;DHT22;21895;47.072;15.132;2023-09-08T12:08:17;26.00;91.80
20929;DHT22;21895;47.072;15.132;2023-09-08T12:10:44;26.10;91.90
20929;DHT22;21895;47.072;15.132;2023-09-08T12:13:11;26.10;92.30
20929;DHT22;21895;47.072;15.132;2023-09-08T12:15:41;26.10;91.40
20929;DHT22;21895;47.072;15.132;2023-09-08T12:18:13;26.10;91.00
20929;DHT22;21895;47.072;15.132;2023-09-08T12:20:43;26.10;92.10
20929;DHT22;21895;47.072;15.132;2023-09-08T12:23:18;26.10;90.80
20929;DHT22;21895;47.072;15.132;2023-09-08T12:25:47;26.10;91.20
20929;DHT22;21895;47.072;15.132;2023-09-08T12:28:17;26.20;91.60
20929;DHT22;21895;47.072;15.132;2023-09-08T12:30:45;26.20;91.30
20929;DHT22;21895;47.072;15.132;2023-09-08T12:33:13;26.20;91.50
20929;DHT22;21895;47.072;15.132;2023-09-08T12:35:44;26.20;90.80
20929;DHT22;21895;47.072;15.132;2023-09-08T12:38:13;26.30;92.10
20929;DHT22;21895;47.072;15.132;2023-09-08T12:40:40;26.40;90.70
20929;DHT22;21895;47.072;15.132;2023-09-08T12:43:06;26.30;90.20
20929;DHT22;21895;47.072;15.132;2023-09-08T12:45:41;26.30;90.90
20929;DHT22;21895;47.072;15.132;2023-09-08T12:48:08;26.10;91.40
20929;DHT22;21895;47.072;15.132;2023-09-08T12:50:35;26.20;90.10
20929;DHT22;21895;47.072;15.132;2023-09-08T12:53:01;26.30;90.50
20929;DHT22;21895;47.072;15.132;2023-09-08T12:55:28;26.30;90.80
20929;DHT22;21895;47.072;15.132;2023-09-08T12:57:54;26.30;90.60
20929;DHT22;21895;47.072;15.132;2023-09-08T13:00:22;26.20;90.60
20929;DHT22;21895;47.072;15.132;2023-09-08T13:02:49;26.30;91.10
20929;DHT22;21895;47.072;15.132;2023-09-08T13:05:16;26.20;90.50
20929;DHT22;21895;47.072;15.132;2023-09-08T13:07:43;26.20;90.50
20929;DHT22;21895;47.072;15.132;2023-09-08T13:10:09;26.20;91.60
20929;DHT22;21895;47.072;15.132;2023-09-08T13:12:36;26.20;90.20
20929;DHT22;21895;47.072;15.132;2023-09-08T13:15:03;26.20;90.20
20929;DHT22;21895;47.072;15.132;2023-09-08T13:17:30;26.20;90.40
20929;DHT22;21895;47.072;15.132;2023-09-08T13:19:57;26.20;90.20
20929;DHT22;21895;47.072;15.132;2023-09-08T13:22:23;26.20;90.80
20929;DHT22;21895;47.072;15.132;2023-09-08T13:24:50;26.20;90.00
20929;DHT22;21895;47.072;15.132;2023-09-08T13:27:16;26.10;90.40
20929;DHT22;21895;47.072;15.132;2023-09-08T13:29:44;26.20;90.10
20929;DHT22;21895;47.072;15.132;2023-09-08T13:32:10;26.20;90.10
20929;DHT22;21895;47.072;15.132;2023-09-08T13:34:37;26.20;89.40
20929;DHT22;21895;47.072;15.132;2023-09-08T13:37:04;26.10;89.70
20929;DHT22;21895;47.072;15.132;2023-09-08T13:39:31;26.10;89.90
20929;DHT22;21895;47.072;15.132;2023-09-08T13:42:00;26.00;90.10
20929;DHT22;21895;47.072;15.132;2023-09-08T13:44:27;26.00;91.10
20929;DHT22;21895;47.072;15.132;2023-09-08T13:46:54;26.00;90.10
20929;DHT22;21895;47.072;15.132;2023-09-08T13:49:22;25.80;90.50
20929;DHT22;21895;47.072;15.132;2023-09-08T13:51:49;25.80;91.60
20929;DHT22;21895;47.072;15.132;2023-09-08T13:54:18;25.80;90.90
20929;DHT22;21895;47.072;15.132;2023-09-08T13:57:00;25.80;90.70
20929;DHT22;21895;47.072;15.132;2023-09-08T13:59:29;25.70;91.20
20929;DHT22;21895;47.072;15.132;2023-09-08T14:02:02;25.80;90.60
20929;DHT22;21895;47.072;15.132;2023-09-08T14:05:07;25.80;91.10
20929;DHT22;21895;47.072;15.132;2023-09-08T14:07:35;25.80;91.00
20929;DHT22;21895;47.072;15.132;2023-09-08T14:10:11;25.90;91.50
20929;DHT22;21895;47.072;15.132;2023-09-08T14:12:40;25.90;90.90
20929;DHT22;21895;47.072;15.132;2023-09-08T14:15:07;25.90;90.20
20929;DHT22;21895;47.072;15.132;2023-09-08T14:17:34;25.90;91.10
20929;DHT22;21895;47.072;15.132;2023-09-08T14:20:01;25.80;90.80
20929;DHT22;21895;47.072;15.132;2023-09-08T14:22:28;25.70;91.10
20929;DHT22;21895;47.072;15.132;2023-09-08T14:24:55;25.70;91.20
20929;DHT22;21895;47.072;15.132;2023-09-08T14:27:21;25.60;91.10
20929;DHT22;21895;47.072;15.132;2023-09-08T14:29:48;25.70;91.40
20929;DHT22;21895;47.072;15.132;2023-09-08T14:32:14;25.70;91.40
20929;DHT22;21895;47.072;15.132;2023-09-08T14:34:41;25.70;91.70
20929;DHT22;21895;47.072;15.132;2023-09-08T14:37:08;25.70;91.10
20929;DHT22;21895;47.072;15.132;2023-09-08T14:39:37;25.60;91.50
20929;DHT22;21895;47.072;15.132;2023-09-08T14:42:04;25.50;91.20
20929;DHT22;21895;47.072;15.132;2023-09-08T14:44:31;25.50;91.20
20929;DHT22;21895;47.072;15.132;2023-09-08T14:46:57;25.60;91.50
20929;DHT22;21895;47.072;15.132;2023-09-08T14:49:24;25.60;92.70
20929;DHT22;21895;47.072;15.132;2023-09-08T14:51:51;25.50;92.00
20929;DHT22;21895;47.072;15.132;2023-09-08T14:54:17;25.40;92.70
20929;DHT22;21895;47.072;15.132;2023-09-08T14:56:44;25.40;92.00
20929;DHT22;21895;47.072;15.132;2023-09-08T14:59:10;25.40;92.30
20929;DHT22;21895;47.072;15.132;2023-09-08T15:01:37;25.40;92.70
20929;DHT22;21895;47.072;15.132;2023-09-08T15:04:06;25.40;93.10
20929;DHT22;21895;47.072;15.132;2023-09-08T15:06:33;25.30;91.80
20929;DHT22;21895;47.072;15.132;2023-09-08T15:08:59;25.30;92.70
20929;DHT22;21895;47.072;15.132;2023-09-08T15:11:26;25.30;92.70
20929;DHT22;21895;47.072;15.132;2023-09-08T15:13:52;25.20;92.20
20929;DHT22;21895;47.072;15.132;2023-09-08T15:16:19;25.10;92.10
20929;DHT22;21895;47.072;15.132;2023-09-08T15:18:47;25.10;92.20
20929;DHT22;21895;47.072;15.132;2023-09-08T15:21:15;25.10;92.50
20929;DHT22;21895;47.072;15.132;2023-09-08T15:23:42;25.10;93.70
20929;DHT22;21895;47.072;15.132;2023-09-08T15:26:08;25.10;93.40